AMX256 MMPR-MMAN
Flight info
| Callsign | AMX256 |
|---|---|
| Flight time | 1h 3m |
| Altitude | 35000 |
| Route | XUDED1A XUDED UT148 OTEKA UT1 KATLA DCT SLW DCT |
| Aircraft | B38M/M-SDE1FGHILORVWXY/HB1 |
Departure
| Time | 2026-05-08 13:02 |
|---|---|
| Airport | Puerto Vallarta International Airport (MMPR) |
Arrival
| Time | 2026-05-08 14:05 |
|---|---|
| Airport | Del Norte International Airport (MMAN) |
| Time | Latitude | Longitude | Altitude | Speed | Heading |
|---|---|---|---|---|---|
| 2026-05-08 12:53 | 20.68082 | -105.24680 | 31 ft | 2 kts | 227° |
| 2026-05-08 12:53 | 20.68085 | -105.24677 | 31 ft | 3 kts | 227° |
| 2026-05-08 12:53 | 20.68103 | -105.24656 | 31 ft | 4 kts | 232° |
| 2026-05-08 12:53 | 20.68113 | -105.24632 | 31 ft | 4 kts | 269° |
| 2026-05-08 12:54 | 20.68106 | -105.24608 | 31 ft | 3 kts | 314° |
| 2026-05-08 12:54 | 20.68104 | -105.24606 | 31 ft | 2 kts | 316° |
| 2026-05-08 12:57 | 20.68114 | -105.24616 | 31 ft | 4 kts | 315° |
| 2026-05-08 12:57 | 20.68148 | -105.24652 | 31 ft | 10 kts | 316° |
| 2026-05-08 12:57 | 20.68218 | -105.24719 | 31 ft | 17 kts | 319° |
| 2026-05-08 12:57 | 20.68292 | -105.24829 | 31 ft | 19 kts | 252° |
| 2026-05-08 12:58 | 20.68200 | -105.24938 | 31 ft | 21 kts | 227° |
| 2026-05-08 12:58 | 20.68085 | -105.25071 | 31 ft | 28 kts | 227° |
| 2026-05-08 12:58 | 20.67937 | -105.25241 | 32 ft | 33 kts | 227° |
| 2026-05-08 12:58 | 20.67780 | -105.25422 | 32 ft | 34 kts | 227° |
| 2026-05-08 12:59 | 20.67620 | -105.25606 | 31 ft | 35 kts | 227° |
| 2026-05-08 12:59 | 20.67454 | -105.25796 | 31 ft | 35 kts | 227° |
| 2026-05-08 12:59 | 20.67285 | -105.25989 | 32 ft | 36 kts | 227° |
| 2026-05-08 12:59 | 20.67113 | -105.26187 | 32 ft | 36 kts | 227° |
| 2026-05-08 13:00 | 20.66973 | -105.26358 | 32 ft | 22 kts | 249° |
| 2026-05-08 13:00 | 20.67033 | -105.26476 | 33 ft | 18 kts | 322° |
| 2026-05-08 13:00 | 20.67097 | -105.26465 | 34 ft | 8 kts | 47° |
| 2026-05-08 13:00 | 20.67103 | -105.26458 | 34 ft | 0 kts | 47° |
| 2026-05-08 13:01 | 20.67110 | -105.26450 | 34 ft | 7 kts | 47° |
| 2026-05-08 13:01 | 20.67239 | -105.26302 | 34 ft | 63 kts | 47° |
| 2026-05-08 13:01 | 20.67719 | -105.25751 | 32 ft | 136 kts | 47° |
| 2026-05-08 13:01 | 20.68484 | -105.24881 | 276 ft | 171 kts | 46° |
| 2026-05-08 13:02 | 20.69293 | -105.23910 | 992 ft | 183 kts | 50° |
| 2026-05-08 13:02 | 20.70125 | -105.22869 | 1866 ft | 186 kts | 48° |
| 2026-05-08 13:02 | 20.71041 | -105.21791 | 2500 ft | 208 kts | 47° |
| 2026-05-08 13:02 | 20.72093 | -105.20576 | 3044 ft | 236 kts | 47° |
| 2026-05-08 13:03 | 20.73187 | -105.19297 | 4180 ft | 232 kts | 47° |
| 2026-05-08 13:03 | 20.74302 | -105.18012 | 5165 ft | 239 kts | 46° |
| 2026-05-08 13:03 | 20.75455 | -105.16699 | 6130 ft | 243 kts | 46° |
| 2026-05-08 13:03 | 20.76630 | -105.15370 | 7073 ft | 248 kts | 46° |
| 2026-05-08 13:04 | 20.77829 | -105.14019 | 8016 ft | 252 kts | 46° |
| 2026-05-08 13:04 | 20.79044 | -105.12653 | 8903 ft | 256 kts | 45° |
| 2026-05-08 13:04 | 20.80278 | -105.11266 | 9772 ft | 259 kts | 46° |
| 2026-05-08 13:04 | 20.81550 | -105.09862 | 10544 ft | 267 kts | 41° |
| 2026-05-08 13:05 | 20.83172 | -105.08864 | 11020 ft | 282 kts | 13° |
| 2026-05-08 13:05 | 20.85173 | -105.08652 | 11490 ft | 299 kts | 359° |
| 2026-05-08 13:05 | 20.87313 | -105.08599 | 11984 ft | 316 kts | 359° |
| 2026-05-08 13:05 | 20.89563 | -105.08540 | 12543 ft | 331 kts | 0° |
| 2026-05-08 13:06 | 20.91919 | -105.08481 | 12909 ft | 346 kts | 0° |
| 2026-05-08 13:06 | 20.94345 | -105.08421 | 12992 ft | 350 kts | 360° |
| 2026-05-08 13:06 | 20.96791 | -105.08361 | 13025 ft | 352 kts | 360° |
| 2026-05-08 13:06 | 20.99240 | -105.08303 | 13039 ft | 352 kts | 360° |
| 2026-05-08 13:07 | 21.01687 | -105.08244 | 13067 ft | 352 kts | 360° |
| 2026-05-08 13:07 | 21.04136 | -105.08186 | 13067 ft | 352 kts | 360° |
| 2026-05-08 13:07 | 21.06583 | -105.08127 | 13069 ft | 352 kts | 360° |
| 2026-05-08 13:07 | 21.09033 | -105.08069 | 13069 ft | 352 kts | 360° |
| 2026-05-08 13:08 | 21.11480 | -105.08010 | 13075 ft | 352 kts | 360° |
| 2026-05-08 13:08 | 21.13927 | -105.07952 | 13115 ft | 352 kts | 360° |
| 2026-05-08 13:08 | 21.16345 | -105.07895 | 13071 ft | 351 kts | 360° |
| 2026-05-08 13:08 | 21.18789 | -105.07836 | 13079 ft | 352 kts | 360° |
| 2026-05-08 13:09 | 21.21247 | -105.07778 | 13666 ft | 352 kts | 360° |
| 2026-05-08 13:09 | 21.23717 | -105.07718 | 14462 ft | 356 kts | 360° |
| 2026-05-08 13:09 | 21.26215 | -105.07659 | 15157 ft | 362 kts | 360° |
| 2026-05-08 13:09 | 21.28750 | -105.07598 | 15874 ft | 367 kts | 360° |
| 2026-05-08 13:10 | 21.31320 | -105.07537 | 16536 ft | 372 kts | 360° |
| 2026-05-08 13:10 | 21.33926 | -105.07474 | 17192 ft | 376 kts | 360° |
| 2026-05-08 13:10 | 21.36561 | -105.07412 | 17831 ft | 381 kts | 360° |
| 2026-05-08 13:10 | 21.39223 | -105.07348 | 18464 ft | 385 kts | 360° |
| 2026-05-08 13:11 | 21.41914 | -105.07284 | 19050 ft | 388 kts | 360° |
| 2026-05-08 13:11 | 21.44591 | -105.07220 | 19667 ft | 391 kts | 359° |
| 2026-05-08 13:11 | 21.47323 | -105.07155 | 20256 ft | 394 kts | 359° |
| 2026-05-08 13:11 | 21.50081 | -105.07089 | 20835 ft | 397 kts | 359° |
| 2026-05-08 13:12 | 21.52866 | -105.07022 | 21409 ft | 400 kts | 359° |
| 2026-05-08 13:12 | 21.55663 | -105.06955 | 21891 ft | 405 kts | 359° |
| 2026-05-08 13:12 | 21.58495 | -105.06887 | 22063 ft | 406 kts | 359° |
| 2026-05-08 13:12 | 21.61316 | -105.06819 | 22145 ft | 406 kts | 358° |
| 2026-05-08 13:13 | 21.64138 | -105.06751 | 22096 ft | 405 kts | 358° |
| 2026-05-08 13:13 | 21.66962 | -105.06684 | 22411 ft | 406 kts | 358° |
| 2026-05-08 13:13 | 21.69792 | -105.06616 | 22929 ft | 409 kts | 358° |
| 2026-05-08 13:13 | 21.72648 | -105.06547 | 23420 ft | 412 kts | 358° |
| 2026-05-08 13:14 | 21.75487 | -105.06473 | 23875 ft | 415 kts | 360° |
| 2026-05-08 13:14 | 21.78338 | -105.05878 | 24337 ft | 423 kts | 20° |
| 2026-05-08 13:14 | 21.80866 | -105.04226 | 24748 ft | 431 kts | 41° |
| 2026-05-08 13:14 | 21.82936 | -105.01878 | 25173 ft | 435 kts | 46° |
| 2026-05-08 13:15 | 21.85067 | -104.99536 | 25508 ft | 440 kts | 44° |
| 2026-05-08 13:15 | 21.87244 | -104.97200 | 25930 ft | 443 kts | 44° |
| 2026-05-08 13:15 | 21.89446 | -104.94859 | 26314 ft | 446 kts | 43° |
| 2026-05-08 13:15 | 21.91670 | -104.92505 | 26757 ft | 448 kts | 43° |
| 2026-05-08 13:16 | 21.93895 | -104.90145 | 27123 ft | 450 kts | 43° |
| 2026-05-08 13:16 | 21.96133 | -104.87779 | 27542 ft | 452 kts | 43° |
| 2026-05-08 13:16 | 21.98412 | -104.85377 | 27538 ft | 466 kts | 43° |
| 2026-05-08 13:16 | 22.00762 | -104.82905 | 27512 ft | 478 kts | 43° |
| 2026-05-08 13:17 | 22.03171 | -104.80365 | 27543 ft | 489 kts | 43° |
| 2026-05-08 13:17 | 22.05624 | -104.77778 | 27571 ft | 499 kts | 43° |
| 2026-05-08 13:17 | 22.08098 | -104.75168 | 27600 ft | 509 kts | 43° |
| 2026-05-08 13:17 | 22.10652 | -104.72471 | 27623 ft | 517 kts | 43° |
| 2026-05-08 13:18 | 22.13255 | -104.69720 | 27577 ft | 526 kts | 43° |
| 2026-05-08 13:18 | 22.15884 | -104.66939 | 27691 ft | 531 kts | 43° |
| 2026-05-08 13:18 | 22.18513 | -104.64144 | 27949 ft | 532 kts | 43° |
| 2026-05-08 13:18 | 22.21150 | -104.61338 | 28298 ft | 531 kts | 44° |
| 2026-05-08 13:19 | 22.23785 | -104.58531 | 28567 ft | 531 kts | 43° |
| 2026-05-08 13:19 | 22.26386 | -104.55761 | 28863 ft | 531 kts | 43° |
| 2026-05-08 13:19 | 22.29013 | -104.52960 | 29185 ft | 531 kts | 43° |
| 2026-05-08 13:19 | 22.31648 | -104.50148 | 29470 ft | 532 kts | 43° |
| 2026-05-08 13:20 | 22.34280 | -104.47341 | 29836 ft | 531 kts | 43° |
| 2026-05-08 13:20 | 22.36910 | -104.44531 | 30152 ft | 532 kts | 43° |
| 2026-05-08 13:20 | 22.39542 | -104.41719 | 30484 ft | 532 kts | 43° |
| 2026-05-08 13:20 | 22.42175 | -104.38904 | 30818 ft | 532 kts | 43° |
| 2026-05-08 13:21 | 22.44803 | -104.36095 | 31145 ft | 531 kts | 43° |
| 2026-05-08 13:21 | 22.47429 | -104.33284 | 31500 ft | 531 kts | 43° |
| 2026-05-08 13:21 | 22.50057 | -104.30469 | 31830 ft | 531 kts | 43° |
| 2026-05-08 13:21 | 22.52682 | -104.27659 | 32139 ft | 531 kts | 43° |
| 2026-05-08 13:22 | 22.55308 | -104.24842 | 32491 ft | 531 kts | 42° |
| 2026-05-08 13:22 | 22.57934 | -104.22027 | 32817 ft | 531 kts | 43° |
| 2026-05-08 13:22 | 22.60521 | -104.19250 | 33149 ft | 530 kts | 43° |
| 2026-05-08 13:22 | 22.63149 | -104.16428 | 33438 ft | 531 kts | 43° |
| 2026-05-08 13:23 | 22.65771 | -104.13612 | 33738 ft | 532 kts | 43° |
| 2026-05-08 13:23 | 22.68392 | -104.10793 | 34056 ft | 532 kts | 43° |
| 2026-05-08 13:23 | 22.71016 | -104.07974 | 34357 ft | 531 kts | 43° |
| 2026-05-08 13:23 | 22.73642 | -104.05148 | 34680 ft | 531 kts | 43° |
| 2026-05-08 13:24 | 22.76259 | -104.02331 | 35009 ft | 530 kts | 43° |
| 2026-05-08 13:24 | 22.78892 | -103.99494 | 35219 ft | 531 kts | 43° |
| 2026-05-08 13:24 | 22.84100 | -103.93884 | 35193 ft | 527 kts | 43° |
| 2026-05-08 13:25 | 22.89301 | -103.88274 | 35214 ft | 528 kts | 43° |
| 2026-05-08 13:25 | 22.94509 | -103.82651 | 35221 ft | 529 kts | 43° |
| 2026-05-08 13:26 | 22.99717 | -103.77020 | 35205 ft | 529 kts | 43° |
| 2026-05-08 13:26 | 23.04935 | -103.71373 | 35217 ft | 530 kts | 43° |
| 2026-05-08 13:27 | 23.10161 | -103.65712 | 35222 ft | 531 kts | 43° |
| 2026-05-08 13:27 | 23.15387 | -103.60042 | 35222 ft | 531 kts | 43° |
| 2026-05-08 13:28 | 23.20615 | -103.54365 | 35229 ft | 532 kts | 43° |
| 2026-05-08 13:28 | 23.25847 | -103.48677 | 35231 ft | 532 kts | 43° |
| 2026-05-08 13:29 | 23.31075 | -103.42986 | 35224 ft | 532 kts | 43° |
| 2026-05-08 13:29 | 23.36303 | -103.37288 | 35248 ft | 533 kts | 43° |
| 2026-05-08 13:30 | 23.41504 | -103.31613 | 35239 ft | 532 kts | 43° |
| 2026-05-08 13:30 | 23.46730 | -103.25904 | 35244 ft | 532 kts | 43° |
| 2026-05-08 13:31 | 23.51953 | -103.20191 | 35258 ft | 532 kts | 43° |
| 2026-05-08 13:31 | 23.57179 | -103.14470 | 35252 ft | 531 kts | 43° |
| 2026-05-08 13:32 | 23.62394 | -103.08753 | 35259 ft | 532 kts | 43° |
| 2026-05-08 13:32 | 23.67601 | -103.03036 | 35243 ft | 530 kts | 43° |
| 2026-05-08 13:33 | 23.72805 | -102.97317 | 35244 ft | 531 kts | 43° |
| 2026-05-08 13:33 | 23.78000 | -102.91600 | 35248 ft | 530 kts | 43° |
| 2026-05-08 13:34 | 23.83159 | -102.85917 | 35235 ft | 530 kts | 43° |
| 2026-05-08 13:34 | 23.88351 | -102.80192 | 35240 ft | 529 kts | 43° |
| 2026-05-08 13:35 | 23.93531 | -102.74470 | 35231 ft | 529 kts | 44° |
| 2026-05-08 13:35 | 23.98706 | -102.68750 | 35196 ft | 529 kts | 44° |
| 2026-05-08 13:36 | 24.03888 | -102.63012 | 35195 ft | 531 kts | 44° |
| 2026-05-08 13:36 | 24.09088 | -102.57250 | 35199 ft | 532 kts | 44° |
| 2026-05-08 13:37 | 24.14288 | -102.51480 | 35192 ft | 531 kts | 44° |
| 2026-05-08 13:37 | 24.19439 | -102.45757 | 35199 ft | 531 kts | 44° |
| 2026-05-08 13:38 | 24.24623 | -102.39990 | 35184 ft | 530 kts | 44° |
| 2026-05-08 13:38 | 24.29795 | -102.34230 | 35185 ft | 530 kts | 44° |
| 2026-05-08 13:39 | 24.34971 | -102.28458 | 35175 ft | 530 kts | 44° |
| 2026-05-08 13:39 | 24.40140 | -102.22686 | 35175 ft | 530 kts | 44° |
| 2026-05-08 13:40 | 24.45312 | -102.16905 | 35176 ft | 531 kts | 44° |
| 2026-05-08 13:40 | 24.50480 | -102.11119 | 35168 ft | 530 kts | 44° |
| 2026-05-08 13:41 | 24.55647 | -102.05328 | 35165 ft | 531 kts | 44° |
| 2026-05-08 13:41 | 24.60825 | -101.99519 | 35163 ft | 531 kts | 44° |
| 2026-05-08 13:42 | 24.65969 | -101.93740 | 35156 ft | 531 kts | 44° |
| 2026-05-08 13:42 | 24.71130 | -101.87933 | 35154 ft | 531 kts | 44° |
| 2026-05-08 13:43 | 24.76298 | -101.82113 | 35158 ft | 531 kts | 44° |
| 2026-05-08 13:43 | 24.81463 | -101.76287 | 35157 ft | 532 kts | 44° |
| 2026-05-08 13:44 | 24.86636 | -101.70446 | 35149 ft | 528 kts | 44° |
| 2026-05-08 13:44 | 24.89178 | -101.67572 | 34929 ft | 525 kts | 44° |
| 2026-05-08 13:44 | 24.90875 | -101.65654 | 34658 ft | 529 kts | 44° |
| 2026-05-08 13:45 | 24.93438 | -101.62753 | 34099 ft | 529 kts | 44° |
| 2026-05-08 13:45 | 24.96848 | -101.58893 | 33302 ft | 530 kts | 44° |
| 2026-05-08 13:45 | 24.99423 | -101.55977 | 32739 ft | 532 kts | 44° |
| 2026-05-08 13:45 | 25.02003 | -101.53052 | 32182 ft | 533 kts | 44° |
| 2026-05-08 13:46 | 25.03755 | -101.51065 | 31807 ft | 534 kts | 44° |
| 2026-05-08 13:46 | 25.06314 | -101.48161 | 31240 ft | 535 kts | 44° |
| 2026-05-08 13:46 | 25.08905 | -101.45218 | 30673 ft | 535 kts | 45° |
| 2026-05-08 13:46 | 25.11497 | -101.42272 | 30084 ft | 535 kts | 45° |
| 2026-05-08 13:47 | 25.14094 | -101.39320 | 29530 ft | 536 kts | 45° |
| 2026-05-08 13:47 | 25.16694 | -101.36361 | 28952 ft | 537 kts | 45° |
| 2026-05-08 13:47 | 25.19292 | -101.33402 | 28375 ft | 537 kts | 45° |
| 2026-05-08 13:47 | 25.21894 | -101.30438 | 27827 ft | 538 kts | 45° |
| 2026-05-08 13:48 | 25.24498 | -101.27468 | 27252 ft | 538 kts | 45° |
| 2026-05-08 13:48 | 25.27103 | -101.24496 | 26678 ft | 538 kts | 45° |
| 2026-05-08 13:48 | 25.29705 | -101.21525 | 26134 ft | 538 kts | 45° |
| 2026-05-08 13:48 | 25.32304 | -101.18555 | 25575 ft | 536 kts | 45° |
| 2026-05-08 13:49 | 25.34887 | -101.15603 | 25023 ft | 531 kts | 45° |
| 2026-05-08 13:49 | 25.37441 | -101.12679 | 24486 ft | 526 kts | 45° |
| 2026-05-08 13:49 | 25.39974 | -101.09778 | 23942 ft | 521 kts | 45° |
| 2026-05-08 13:49 | 25.42448 | -101.06945 | 23423 ft | 517 kts | 45° |
| 2026-05-08 13:50 | 25.44968 | -101.04054 | 22896 ft | 512 kts | 45° |
| 2026-05-08 13:50 | 25.47393 | -101.01272 | 22383 ft | 507 kts | 45° |
| 2026-05-08 13:50 | 25.49831 | -100.98474 | 21856 ft | 503 kts | 45° |
| 2026-05-08 13:50 | 25.52181 | -100.95635 | 21300 ft | 498 kts | 52° |
| 2026-05-08 13:51 | 25.53890 | -100.92343 | 20783 ft | 491 kts | 70° |
| 2026-05-08 13:51 | 25.54679 | -100.88705 | 20379 ft | 484 kts | 88° |
| 2026-05-08 13:51 | 25.54698 | -100.85007 | 19930 ft | 478 kts | 92° |
| 2026-05-08 13:51 | 25.54709 | -100.81338 | 19433 ft | 474 kts | 92° |
| 2026-05-08 13:52 | 25.54732 | -100.77704 | 18944 ft | 470 kts | 92° |
| 2026-05-08 13:52 | 25.54757 | -100.74100 | 18462 ft | 466 kts | 92° |
| 2026-05-08 13:52 | 25.54782 | -100.70522 | 17967 ft | 462 kts | 92° |
| 2026-05-08 13:52 | 25.54807 | -100.66977 | 17482 ft | 458 kts | 92° |
| 2026-05-08 13:53 | 25.54829 | -100.63464 | 17021 ft | 453 kts | 91° |
| 2026-05-08 13:53 | 25.54850 | -100.59983 | 16540 ft | 449 kts | 91° |
| 2026-05-08 13:53 | 25.54871 | -100.56533 | 15990 ft | 447 kts | 91° |
| 2026-05-08 13:53 | 25.54890 | -100.53101 | 15507 ft | 443 kts | 91° |
| 2026-05-08 13:54 | 25.54910 | -100.49708 | 15050 ft | 438 kts | 91° |
| 2026-05-08 13:54 | 25.54926 | -100.46402 | 14472 ft | 432 kts | 91° |
| 2026-05-08 13:54 | 25.54942 | -100.43090 | 13984 ft | 429 kts | 91° |
| 2026-05-08 13:54 | 25.54959 | -100.39805 | 13485 ft | 424 kts | 91° |
| 2026-05-08 13:55 | 25.54973 | -100.36551 | 12996 ft | 420 kts | 91° |
| 2026-05-08 13:55 | 25.54986 | -100.33331 | 12543 ft | 415 kts | 91° |
| 2026-05-08 13:55 | 25.55107 | -100.26959 | 12396 ft | 417 kts | 82° |
| 2026-05-08 13:56 | 25.56065 | -100.23955 | 12202 ft | 416 kts | 58° |
| 2026-05-08 13:56 | 25.58011 | -100.21632 | 12022 ft | 409 kts | 34° |
| 2026-05-08 13:56 | 25.60445 | -100.20108 | 11868 ft | 395 kts | 29° |
| 2026-05-08 13:56 | 25.62761 | -100.18559 | 11669 ft | 382 kts | 31° |
| 2026-05-08 13:57 | 25.64991 | -100.17036 | 11536 ft | 371 kts | 31° |
| 2026-05-08 13:57 | 25.67148 | -100.15545 | 11371 ft | 360 kts | 31° |
| 2026-05-08 13:57 | 25.69240 | -100.14093 | 11199 ft | 349 kts | 32° |
| 2026-05-08 13:57 | 25.71247 | -100.12693 | 11032 ft | 340 kts | 32° |
| 2026-05-08 13:58 | 25.73219 | -100.11316 | 10849 ft | 332 kts | 32° |
| 2026-05-08 13:58 | 25.75184 | -100.09944 | 10306 ft | 336 kts | 32° |
| 2026-05-08 13:58 | 25.77183 | -100.08547 | 9720 ft | 341 kts | 33° |
| 2026-05-08 13:58 | 25.79199 | -100.07138 | 9237 ft | 342 kts | 34° |
| 2026-05-08 13:59 | 25.81217 | -100.05728 | 8810 ft | 342 kts | 34° |
| 2026-05-08 13:59 | 25.83228 | -100.04321 | 8354 ft | 342 kts | 34° |
| 2026-05-08 13:59 | 25.85249 | -100.02906 | 7929 ft | 342 kts | 34° |
| 2026-05-08 13:59 | 25.87258 | -100.01500 | 7502 ft | 340 kts | 35° |
| 2026-05-08 14:00 | 25.89343 | -100.00237 | 7017 ft | 344 kts | 20° |
| 2026-05-08 14:00 | 25.91692 | -99.99982 | 6573 ft | 349 kts | 352° |
| 2026-05-08 14:00 | 25.93912 | -100.00985 | 6218 ft | 346 kts | 323° |
| 2026-05-08 14:00 | 25.95466 | -100.02978 | 5908 ft | 340 kts | 298° |
| 2026-05-08 14:01 | 25.96648 | -100.05237 | 5566 ft | 336 kts | 299° |
| 2026-05-08 14:01 | 25.97548 | -100.07592 | 5141 ft | 326 kts | 287° |
| 2026-05-08 14:01 | 25.98260 | -100.09934 | 4768 ft | 314 kts | 288° |
| 2026-05-08 14:01 | 25.98844 | -100.12209 | 4450 ft | 298 kts | 273° |
| 2026-05-08 14:02 | 25.98582 | -100.14399 | 4213 ft | 279 kts | 248° |
| 2026-05-08 14:02 | 25.97603 | -100.16147 | 3952 ft | 258 kts | 218° |
| 2026-05-08 14:02 | 25.96135 | -100.17144 | 3726 ft | 238 kts | 207° |
| 2026-05-08 14:02 | 25.94768 | -100.18025 | 3501 ft | 212 kts | 208° |
| 2026-05-08 14:03 | 25.93554 | -100.18827 | 3202 ft | 192 kts | 210° |
| 2026-05-08 14:03 | 25.92511 | -100.19559 | 2966 ft | 169 kts | 210° |
| 2026-05-08 14:03 | 25.91581 | -100.20209 | 2767 ft | 151 kts | 211° |
| 2026-05-08 14:03 | 25.90686 | -100.20836 | 2527 ft | 152 kts | 212° |
| 2026-05-08 14:04 | 25.89790 | -100.21463 | 2311 ft | 151 kts | 211° |
| 2026-05-08 14:04 | 25.88906 | -100.22079 | 2069 ft | 150 kts | 211° |
| 2026-05-08 14:04 | 25.88029 | -100.22694 | 1830 ft | 149 kts | 212° |
| 2026-05-08 14:04 | 25.87152 | -100.23309 | 1540 ft | 148 kts | 211° |
| 2026-05-08 14:05 | 25.86364 | -100.23857 | 1486 ft | 106 kts | 212° |
| 2026-05-08 14:05 | 25.85899 | -100.24181 | 1476 ft | 69 kts | 212° |
| 2026-05-08 14:05 | 25.85653 | -100.24353 | 1486 ft | 12 kts | 212° |
| 2026-05-08 14:05 | 25.85584 | -100.24324 | 1486 ft | 12 kts | 130° |
| 2026-05-08 14:06 | 25.85538 | -100.24245 | 1484 ft | 11 kts | 121° |
| 2026-05-08 14:06 | 25.85525 | -100.24205 | 1487 ft | 3 kts | 63° |
| 2026-05-08 14:06 | 25.85533 | -100.24198 | 1480 ft | 0 kts | 31° |